^^
Saratoga-Weather Station Historical Data
Daily Summary for March 1, 2020 Units:  Both    English   Metric
Daily Weekly Monthly Yearly Custom
  High: Low: Average:
Temperature: 53.1 °F /  11.7 °C 48.2 °F /  9 °C 51.8 °F /  11 °C
Dew Point: 51.6 °F /  10.9 °C 45.3 °F /  7.4 °C 49.8 °F /  9.9 °C
Humidity: 96% 89% 93%
Wind Speed: 16.1mph /  25.9km/h - 0.3mph /  0.5km/h
Wind Gust: 18mph /  29km/h - -
Wind- - West
Pressure: 29.9 in /  1013.9 hPa 29.7 in /  1006.1 hPa -
Precipitation: 0.6 in /  15.2 mm    
Historical Graphs
 
 
Tabular Data for March 1, 2020
Time Temperature Dew Point Pressure Wind Wind Speed Wind Gust Humidity Rainfall Rate (Hourly) solar
00:00 51.8 °F /  11 °C 50.2 °F /  10.1 °C 29.9in /  1012.2hPa Calm     94% 0in /  0.0mm 0 W/m2
00:05 51.8 °F /  11 °C 50.2 °F /  10.1 °C 29.9in /  1012.2hPa Calm     94% 0in /  0.0mm 0 W/m2
00:10 51.8 °F /  11 °C 50.2 °F /  10.1 °C 29.9in /  1011.9hPa Calm     94% 0in /  0.0mm 0 W/m2
00:15 51.6 °F /  10.9 °C 50.2 °F /  10.1 °C 29.9in /  1011.9hPa Calm     95% 0.01in /  0.2mm 0 W/m2
00:20 51.6 °F /  10.9 °C 50.2 °F /  10.1 °C 29.9in /  1011.9hPa Calm     95% 0.01in /  0.2mm 0 W/m2
00:25 51.6 °F /  10.9 °C 50.2 °F /  10.1 °C 29.9in /  1011.9hPa Calm     95% 0.01in /  0.2mm 0 W/m2
00:30 51.6 °F /  10.9 °C 50.2 °F /  10.1 °C 29.9in /  1011.9hPa Calm     95% 0.01in /  0.2mm 0 W/m2
00:35 51.6 °F /  10.9 °C 50.2 °F /  10.1 °C 29.9in /  1011.9hPa Calm   1mph /  1.6km/h 95% 0.01in /  0.2mm 0 W/m2
00:41 51.6 °F /  10.9 °C 50.2 °F /  10.1 °C 29.9in /  1011.9hPa Calm     95% 0.01in /  0.2mm 0 W/m2
00:46 51.4 °F /  10.8 °C 50 °F /  10 °C 29.9in /  1011.9hPa Calm     95% 0.01in /  0.2mm 0 W/m2
00:51 51.4 °F /  10.8 °C 50 °F /  10 °C 29.9in /  1011.5hPa Calm     95% 0.01in /  0.2mm 0 W/m2
00:56 51.4 °F /  10.8 °C 50 °F /  10 °C 29.9in /  1011.5hPa Calm     95% 0.01in /  0.2mm 0 W/m2
01:01 51.4 °F /  10.8 °C 50 °F /  10 °C 29.9in /  1011.2hPa Calm     95% 0.01in /  0.2mm 0 W/m2
01:06 51.4 °F /  10.8 °C 50 °F /  10 °C 29.9in /  1010.8hPa Calm     95% 0.01in /  0.2mm 0 W/m2
01:11 51.4 °F /  10.8 °C 49.8 °F /  9.9 °C 29.9in /  1010.8hPa Calm     94% 0.01in /  0.2mm 0 W/m2
01:16 51.4 °F /  10.8 °C 49.8 °F /  9.9 °C 29.9in /  1011.2hPa Calm     94% 0in /  0.0mm 0 W/m2
01:21 51.3 °F /  10.7 °C 49.6 °F /  9.8 °C 29.9in /  1010.8hPa Calm     94% 0in /  0.0mm 0 W/m2
01:26 51.3 °F /  10.7 °C 49.6 °F /  9.8 °C 29.9in /  1010.8hPa Calm     94% 0in /  0.0mm 0 W/m2
01:31 51.1 °F /  10.6 °C 49.5 °F /  9.7 °C 29.9in /  1010.8hPa Calm     94% 0in /  0.0mm 0 W/m2
01:36 51.3 °F /  10.7 °C 49.6 °F /  9.8 °C 29.9in /  1010.8hPa Calm     94% 0in /  0.0mm 0 W/m2
01:41 51.4 °F /  10.8 °C 49.8 °F /  9.9 °C 29.9in /  1010.8hPa Calm     94% 0in /  0.0mm 0 W/m2
01:46 51.4 °F /  10.8 °C 49.8 °F /  9.9 °C 29.9in /  1010.8hPa Calm   1mph /  1.6km/h 94% 0in /  0.0mm 0 W/m2
01:51 51.6 °F /  10.9 °C 49.6 °F /  9.8 °C 29.9in /  1010.8hPa Calm     93% 0in /  0.0mm 0 W/m2
01:56 51.6 °F /  10.9 °C 49.6 °F /  9.8 °C 29.8in /  1010.5hPa Calm     93% 0in /  0.0mm 0 W/m2
02:01 51.6 °F /  10.9 °C 49.6 °F /  9.8 °C 29.8in /  1010.5hPa Calm   5mph /  8km/h 93% 0in /  0.0mm 0 W/m2
02:06 51.6 °F /  10.9 °C 49.6 °F /  9.8 °C 29.8in /  1010.5hPa Calm     93% 0in /  0.0mm 0 W/m2
02:11 51.6 °F /  10.9 °C 49.6 °F /  9.8 °C 29.8in /  1010.5hPa Calm   5mph /  8km/h 93% 0in /  0.0mm 0 W/m2
02:16 51.6 °F /  10.9 °C 49.6 °F /  9.8 °C 29.8in /  1010.2hPa Calm     93% 0in /  0.0mm 0 W/m2
02:21 51.6 °F /  10.9 °C 49.6 °F /  9.8 °C 29.8in /  1010.2hPa Calm     93% 0in /  0.0mm 0 W/m2
02:26 51.6 °F /  10.9 °C 49.6 °F /  9.8 °C 29.8in /  1010.2hPa Calm     93% 0in /  0.0mm 0 W/m2
02:31 51.6 °F /  10.9 °C 49.6 °F /  9.8 °C 29.8in /  1010.2hPa Calm     93% 0in /  0.0mm 0 W/m2
02:36 51.6 °F /  10.9 °C 49.6 °F /  9.8 °C 29.8in /  1010.2hPa Calm     93% 0in /  0.0mm 0 W/m2
02:42 51.6 °F /  10.9 °C 49.6 °F /  9.8 °C 29.8in /  1010.2hPa Calm     93% 0in /  0.0mm 0 W/m2
02:47 51.6 °F /  10.9 °C 49.6 °F /  9.8 °C 29.8in /  1010.2hPa Calm     93% 0in /  0.0mm 0 W/m2
02:52 51.6 °F /  10.9 °C 50 °F /  10 °C 29.8in /  1010.2hPa Calm     94% 0in /  0.0mm 0 W/m2
02:57 51.6 °F /  10.9 °C 50 °F /  10 °C 29.8in /  1010.2hPa Calm     94% 0in /  0.0mm 0 W/m2
03:02 51.4 °F /  10.8 °C 49.8 °F /  9.9 °C 29.8in /  1010.2hPa Calm     94% 0in /  0.0mm 0 W/m2
03:07 51.4 °F /  10.8 °C 49.8 °F /  9.9 °C 29.8in /  1009.8hPa Calm     94% 0in /  0.0mm 0 W/m2
03:12 51.4 °F /  10.8 °C 49.8 °F /  9.9 °C 29.8in /  1009.8hPa Calm     94% 0in /  0.0mm 0 W/m2
03:17 51.4 °F /  10.8 °C 49.8 °F /  9.9 °C 29.8in /  1009.8hPa Calm     94% 0in /  0.0mm 0 W/m2
03:22 51.4 °F /  10.8 °C 50 °F /  10 °C 29.8in /  1009.8hPa Calm     95% 0in /  0.0mm 0 W/m2
03:27 51.4 °F /  10.8 °C 50 °F /  10 °C 29.8in /  1009.8hPa Calm     95% 0in /  0.0mm 0 W/m2
03:32 51.3 °F /  10.7 °C 49.8 °F /  9.9 °C 29.8in /  1009.8hPa Calm     95% 0in /  0.0mm 0 W/m2
03:37 51.3 °F /  10.7 °C 49.8 °F /  9.9 °C 29.8in /  1009.8hPa Calm     95% 0.01in /  0.2mm 0 W/m2
03:42 51.3 °F /  10.7 °C 49.8 °F /  9.9 °C 29.8in /  1009.5hPa Calm     95% 0.01in /  0.2mm 0 W/m2
03:47 51.3 °F /  10.7 °C 49.8 °F /  9.9 °C 29.8in /  1009.5hPa Calm     95% 0.01in /  0.2mm 0 W/m2
03:52 51.3 °F /  10.7 °C 49.8 °F /  9.9 °C 29.8in /  1009.5hPa Calm     95% 0.01in /  0.2mm 0 W/m2
03:57 51.3 °F /  10.7 °C 49.8 °F /  9.9 °C 29.8in /  1009.1hPa Calm     95% 0.01in /  0.2mm 0 W/m2
04:02 51.3 °F /  10.7 °C 49.8 °F /  9.9 °C 29.8in /  1009.1hPa Calm     95% 0.01in /  0.2mm 0 W/m2
04:07 51.3 °F /  10.7 °C 49.8 °F /  9.9 °C 29.8in /  1009.5hPa Calm     95% 0.01in /  0.2mm 0 W/m2
04:13 51.3 °F /  10.7 °C 49.8 °F /  9.9 °C 29.8in /  1009.1hPa Calm     95% 0.01in /  0.2mm 0 W/m2
04:18 51.3 °F /  10.7 °C 49.8 °F /  9.9 °C 29.8in /  1009.1hPa Calm     95% 0.01in /  0.2mm 0 W/m2
04:23 51.3 °F /  10.7 °C 49.8 °F /  9.9 °C 29.8in /  1009.1hPa Calm     95% 0.01in /  0.2mm 0 W/m2
04:28 51.3 °F /  10.7 °C 49.8 °F /  9.9 °C 29.8in /  1009.1hPa Calm     95% 0.01in /  0.2mm 0 W/m2
04:33 51.3 °F /  10.7 °C 49.8 °F /  9.9 °C 29.8in /  1008.8hPa Calm     95% 0.01in /  0.2mm 0 W/m2
04:38 51.3 °F /  10.7 °C 49.8 °F /  9.9 °C 29.8in /  1008.8hPa Calm     95% 0in /  0.0mm 0 W/m2
04:43 51.3 °F /  10.7 °C 49.8 °F /  9.9 °C 29.8in /  1008.8hPa Calm     95% 0in /  0.0mm 0 W/m2
04:48 51.3 °F /  10.7 °C 49.8 °F /  9.9 °C 29.8in /  1008.8hPa Calm     95% 0in /  0.0mm 0 W/m2
04:53 51.3 °F /  10.7 °C 49.8 °F /  9.9 °C 29.8in /  1008.5hPa Calm     95% 0in /  0.0mm 0 W/m2
04:58 51.3 °F /  10.7 °C 49.8 °F /  9.9 °C 29.8in /  1008.5hPa Calm     95% 0in /  0.0mm 0 W/m2
05:03 51.3 °F /  10.7 °C 49.8 °F /  9.9 °C 29.8in /  1008.5hPa Calm     95% 0in /  0.0mm 0 W/m2
05:08 51.4 °F /  10.8 °C 50 °F /  10 °C 29.8in /  1008.5hPa Calm   8mph /  12.9km/h 95% 0in /  0.0mm 0 W/m2
05:13 51.4 °F /  10.8 °C 50 °F /  10 °C 29.8in /  1008.5hPa Calm     95% 0in /  0.0mm 0 W/m2
05:18 51.4 °F /  10.8 °C 50 °F /  10 °C 29.8in /  1008.5hPa Calm   8mph /  12.9km/h 95% 0in /  0.0mm 0 W/m2
05:23 51.4 °F /  10.8 °C 50 °F /  10 °C 29.8in /  1008.1hPa Calm     95% 0in /  0.0mm 0 W/m2
05:28 51.4 °F /  10.8 °C 50 °F /  10 °C 29.8in /  1008.1hPa Calm   7mph /  11.3km/h 95% 0in /  0.0mm 0 W/m2
05:33 51.4 °F /  10.8 °C 50.4 °F /  10.2 °C 29.8in /  1008.1hPa Calm     96% 0in /  0.0mm 0 W/m2
05:38 51.4 °F /  10.8 °C 50.4 °F /  10.2 °C 29.8in /  1008.1hPa Calm   2mph /  3.2km/h 96% 0in /  0.0mm 0 W/m2
05:43 51.4 °F /  10.8 °C 50.4 °F /  10.2 °C 29.8in /  1008.1hPa Calm     96% 0in /  0.0mm 0 W/m2
05:48 51.4 °F /  10.8 °C 50.4 °F /  10.2 °C 29.8in /  1008.1hPa Calm     96% 0in /  0.0mm 0 W/m2
05:53 51.6 °F /  10.9 °C 50.5 °F /  10.3 °C 29.8in /  1008.1hPa Calm     96% 0in /  0.0mm 0 W/m2
05:58 51.6 °F /  10.9 °C 50.5 °F /  10.3 °C 29.8in /  1007.8hPa Calm     96% 0in /  0.0mm 0 W/m2
06:03 51.6 °F /  10.9 °C 50.5 °F /  10.3 °C 29.8in /  1007.8hPa Calm   3mph /  4.8km/h 96% 0in /  0.0mm 0 W/m2
06:08 51.8 °F /  11 °C 50.4 °F /  10.2 °C 29.8in /  1007.8hPa Calm     95% 0in /  0.0mm 0 W/m2
06:13 52 °F /  11.1 °C 50.5 °F /  10.3 °C 29.8in /  1007.8hPa Calm     95% 0in /  0.0mm 0 W/m2
06:18 52 °F /  11.1 °C 50.5 °F /  10.3 °C 29.8in /  1007.5hPa Calm     95% 0in /  0.0mm 0 W/m2
06:23 52 °F /  11.1 °C 50.5 °F /  10.3 °C 29.8in /  1007.5hPa Calm     95% 0in /  0.0mm 0 W/m2
06:28 52.2 °F /  11.2 °C 50.7 °F /  10.4 °C 29.8in /  1007.5hPa Calm     95% 0in /  0.0mm 0 W/m2
06:33 52.2 °F /  11.2 °C 50.7 °F /  10.4 °C 29.8in /  1007.5hPa Calm     95% 0in /  0.0mm 0 W/m2
06:38 52.2 °F /  11.2 °C 50.7 °F /  10.4 °C 29.8in /  1007.5hPa Calm   1mph /  1.6km/h 95% 0in /  0.0mm 0 W/m2
06:43 52.3 °F /  11.3 °C 50.9 °F /  10.5 °C 29.7in /  1007.1hPa Calm     95% 0in /  0.0mm 0 W/m2
06:48 52.3 °F /  11.3 °C 50.7 °F /  10.4 °C 29.7in /  1007.1hPa Calm   1mph /  1.6km/h 94% 0in /  0.0mm 0 W/m2
06:58 52.3 °F /  11.3 °C 50.9 °F /  10.5 °C 29.7in /  1007.1hPa Calm     95% 0in /  0.0mm 0 W/m2
07:03 52.3 °F /  11.3 °C 50.7 °F /  10.4 °C 29.7in /  1007.1hPa Calm     94% 0in /  0.0mm 0 W/m2
07:08 52.5 °F /  11.4 °C 50.9 °F /  10.5 °C 29.7in /  1007.1hPa Calm     94% 0in /  0.0mm 0 W/m2
07:13 52.5 °F /  11.4 °C 50.9 °F /  10.5 °C 29.7in /  1007.1hPa Calm     94% 0in /  0.0mm 0 W/m2
07:18 52.3 °F /  11.3 °C 50.7 °F /  10.4 °C 29.7in /  1006.8hPa Calm     94% 0.01in /  0.2mm 0 W/m2
07:23 52.3 °F /  11.3 °C 50.9 °F /  10.5 °C 29.7in /  1007.1hPa Calm     95% 0.02in /  0.5mm 0 W/m2
07:28 52.3 °F /  11.3 °C 50.9 °F /  10.5 °C 29.7in /  1006.8hPa Calm     95% 0.02in /  0.5mm 0 W/m2
07:33 52.3 °F /  11.3 °C 50.9 °F /  10.5 °C 29.7in /  1006.8hPa Calm     95% 0.02in /  0.5mm 0 W/m2
07:38 52.3 °F /  11.3 °C 50.9 °F /  10.5 °C 29.7in /  1006.8hPa Calm     95% 0.02in /  0.5mm 0 W/m2
07:43 52.3 °F /  11.3 °C 50.9 °F /  10.5 °C 29.7in /  1006.8hPa Calm     95% 0.03in /  0.8mm 0 W/m2
07:48 52.3 °F /  11.3 °C 50.9 °F /  10.5 °C 29.7in /  1006.8hPa Calm     95% 0.04in /  1.0mm 0 W/m2
07:53 52.2 °F /  11.2 °C 50.7 °F /  10.4 °C 29.7in /  1006.8hPa Calm     95% 0.05in /  1.3mm 0 W/m2
07:58 52.2 °F /  11.2 °C 50.7 °F /  10.4 °C 29.7in /  1006.8hPa Calm   1mph /  1.6km/h 95% 0.06in /  1.5mm 0 W/m2
08:03 52.2 °F /  11.2 °C 50.7 °F /  10.4 °C 29.7in /  1006.8hPa Calm     95% 0.06in /  1.5mm 0 W/m2
08:08 52.2 °F /  11.2 °C 50.7 °F /  10.4 °C 29.7in /  1006.8hPa Calm     95% 0.07in /  1.8mm 0 W/m2
08:13 52.2 °F /  11.2 °C 50.7 °F /  10.4 °C 29.7in /  1006.8hPa Calm     95% 0.08in /  2.0mm 0 W/m2
08:18 52.2 °F /  11.2 °C 50.7 °F /  10.4 °C 29.7in /  1006.4hPa Calm     95% 0.07in /  1.8mm 0 W/m2
08:23 52.2 °F /  11.2 °C 50.7 °F /  10.4 °C 29.7in /  1006.8hPa Calm     95% 0.07in /  1.8mm 0 W/m2
08:28 52.2 °F /  11.2 °C 50.7 °F /  10.4 °C 29.7in /  1006.8hPa Calm     95% 0.08in /  2.0mm 0 W/m2
08:33 52.2 °F /  11.2 °C 50.7 °F /  10.4 °C 29.7in /  1006.4hPa Calm   4mph /  6.4km/h 95% 0.08in /  2.0mm 0 W/m2
08:38 52.2 °F /  11.2 °C 50.7 °F /  10.4 °C 29.7in /  1006.4hPa Calm     95% 0.08in /  2.0mm 5 W/m2
08:43 52.2 °F /  11.2 °C 50.7 °F /  10.4 °C 29.7in /  1006.4hPa Calm   1mph /  1.6km/h 95% 0.07in /  1.8mm 5 W/m2
08:48 52.2 °F /  11.2 °C 50.7 °F /  10.4 °C 29.7in /  1006.4hPa Calm   15mph /  24.1km/h 95% 0.06in /  1.5mm 11 W/m2
08:53 52.2 °F /  11.2 °C 50.7 °F /  10.4 °C 29.7in /  1006.4hPa Calm     95% 0.06in /  1.5mm 9 W/m2
08:58 52.2 °F /  11.2 °C 50.7 °F /  10.4 °C 29.7in /  1006.4hPa Calm     95% 0.06in /  1.5mm 11 W/m2
09:03 52.2 °F /  11.2 °C 50.7 °F /  10.4 °C 29.7in /  1006.4hPa Calm   3mph /  4.8km/h 95% 0.06in /  1.5mm 16 W/m2
09:08 52.3 °F /  11.3 °C 50.9 °F /  10.5 °C 29.7in /  1006.4hPa Calm   2mph /  3.2km/h 95% 0.06in /  1.5mm 21 W/m2
09:13 52.2 °F /  11.2 °C 50.7 °F /  10.4 °C 29.7in /  1006.4hPa Calm     95% 0.06in /  1.5mm 14 W/m2
09:18 52.3 °F /  11.3 °C 50.9 °F /  10.5 °C 29.7in /  1006.4hPa Calm     95% 0.06in /  1.5mm 26 W/m2
09:23 52.3 °F /  11.3 °C 50.9 °F /  10.5 °C 29.7in /  1006.4hPa Calm     95% 0.06in /  1.5mm 30 W/m2
09:28 52.3 °F /  11.3 °C 50.9 °F /  10.5 °C 29.7in /  1006.4hPa Calm     95% 0.06in /  1.5mm 23 W/m2
09:33 52.3 °F /  11.3 °C 50.9 °F /  10.5 °C 29.7in /  1006.4hPa Calm     95% 0.06in /  1.5mm 23 W/m2
09:38 52.3 °F /  11.3 °C 50.9 °F /  10.5 °C 29.7in /  1006.4hPa Calm     95% 0.06in /  1.5mm 26 W/m2
09:43 52.3 °F /  11.3 °C 50.9 °F /  10.5 °C 29.7in /  1006.4hPa Calm     95% 0.07in /  1.8mm 18 W/m2
09:48 52.3 °F /  11.3 °C 50.9 °F /  10.5 °C 29.7in /  1006.4hPa Calm     95% 0.07in /  1.8mm 18 W/m2
09:54 52.3 °F /  11.3 °C 50.9 °F /  10.5 °C 29.7in /  1006.4hPa Calm     95% 0.07in /  1.8mm 14 W/m2
09:59 52.3 °F /  11.3 °C 50.9 °F /  10.5 °C 29.7in /  1006.4hPa Calm   9mph /  14.5km/h 95% 0.08in /  2.0mm 21 W/m2
10:04 52.3 °F /  11.3 °C 50.9 °F /  10.5 °C 29.7in /  1006.1hPa Calm     95% 0.08in /  2.0mm 21 W/m2
10:09 52.3 °F /  11.3 °C 50.9 °F /  10.5 °C 29.7in /  1006.1hPa Calm   9mph /  14.5km/h 95% 0.09in /  2.3mm 18 W/m2
10:14 52.3 °F /  11.3 °C 50.9 °F /  10.5 °C 29.7in /  1006.4hPa Calm     95% 0.08in /  2.0mm 21 W/m2
10:19 52.3 °F /  11.3 °C 50.9 °F /  10.5 °C 29.7in /  1006.4hPa Calm     95% 0.09in /  2.3mm 16 W/m2
10:24 52.3 °F /  11.3 °C 50.9 °F /  10.5 °C 29.7in /  1006.4hPa Calm     95% 0.09in /  2.3mm 18 W/m2
10:29 52.3 °F /  11.3 °C 50.9 °F /  10.5 °C 29.7in /  1006.4hPa Calm   10mph /  16.1km/h 95% 0.11in /  2.8mm 19 W/m2
10:34 52.3 °F /  11.3 °C 50.9 °F /  10.5 °C 29.7in /  1006.1hPa Calm     95% 0.11in /  2.8mm 18 W/m2
10:39 52.3 °F /  11.3 °C 50.9 °F /  10.5 °C 29.7in /  1006.1hPa WNW 0.9mph /  1.4km/h 1mph /  1.6km/h 95% 0.1in /  2.5mm 21 W/m2
10:44 52.3 °F /  11.3 °C 50.9 °F /  10.5 °C 29.7in /  1006.4hPa Calm     95% 0.1in /  2.5mm 26 W/m2
10:49 52.3 °F /  11.3 °C 50.9 °F /  10.5 °C 29.7in /  1006.4hPa Calm     95% 0.11in /  2.8mm 35 W/m2
10:54 52.5 °F /  11.4 °C 51.1 °F /  10.6 °C 29.7in /  1006.4hPa Calm     95% 0.11in /  2.8mm 33 W/m2
10:59 52.5 °F /  11.4 °C 51.1 °F /  10.6 °C 29.7in /  1006.4hPa Calm     95% 0.11in /  2.8mm 42 W/m2
11:04 52.5 °F /  11.4 °C 51.1 °F /  10.6 °C 29.7in /  1006.4hPa Calm   7mph /  11.3km/h 95% 0.1in /  2.5mm 44 W/m2
11:09 52.7 °F /  11.5 °C 51.3 °F /  10.7 °C 29.7in /  1006.4hPa NNW 0.9mph /  1.4km/h 1mph /  1.6km/h 95% 0.1in /  2.5mm 30 W/m2
11:14 52.7 °F /  11.5 °C 51.3 °F /  10.7 °C 29.7in /  1006.4hPa Calm     95% 0.1in /  2.5mm 30 W/m2
11:19 52.7 °F /  11.5 °C 51.3 °F /  10.7 °C 29.7in /  1006.4hPa Calm     95% 0.1in /  2.5mm 23 W/m2
11:24 52.7 °F /  11.5 °C 51.3 °F /  10.7 °C 29.7in /  1006.4hPa Calm     95% 0.1in /  2.5mm 16 W/m2
11:29 52.7 °F /  11.5 °C 51.3 °F /  10.7 °C 29.7in /  1006.4hPa Calm   1mph /  1.6km/h 95% 0.11in /  2.8mm 18 W/m2
11:34 52.5 °F /  11.4 °C 51.1 °F /  10.6 °C 29.7in /  1006.4hPa Calm   4mph /  6.4km/h 95% 0.11in /  2.8mm 18 W/m2
11:39 52.5 °F /  11.4 °C 51.1 °F /  10.6 °C 29.7in /  1006.4hPa Calm     95% 0.13in /  3.3mm 18 W/m2
11:44 52.5 °F /  11.4 °C 51.1 °F /  10.6 °C 29.7in /  1006.4hPa Calm     95% 0.13in /  3.3mm 23 W/m2
11:49 52.5 °F /  11.4 °C 51.1 °F /  10.6 °C 29.7in /  1006.4hPa Calm     95% 0.13in /  3.3mm 30 W/m2
11:54 52.5 °F /  11.4 °C 51.1 °F /  10.6 °C 29.7in /  1006.4hPa Calm     95% 0.13in /  3.3mm 33 W/m2
11:59 52.7 °F /  11.5 °C 51.3 °F /  10.7 °C 29.7in /  1006.4hPa Calm     95% 0.12in /  3.0mm 40 W/m2
12:04 52.9 °F /  11.6 °C 51.4 °F /  10.8 °C 29.7in /  1006.4hPa Calm     95% 0.12in /  3.0mm 37 W/m2
12:09 52.9 °F /  11.6 °C 51.4 °F /  10.8 °C 29.7in /  1006.4hPa Calm   2mph /  3.2km/h 95% 0.11in /  2.8mm 53 W/m2
12:14 52.9 °F /  11.6 °C 51.4 °F /  10.8 °C 29.7in /  1006.4hPa Calm     95% 0.1in /  2.5mm 44 W/m2
12:19 52.9 °F /  11.6 °C 51.4 °F /  10.8 °C 29.7in /  1006.4hPa Calm   7mph /  11.3km/h 95% 0.1in /  2.5mm 54 W/m2
12:24 52.9 °F /  11.6 °C 51.4 °F /  10.8 °C 29.7in /  1006.4hPa Calm   5mph /  8km/h 95% 0.09in /  2.3mm 37 W/m2
12:29 52.9 °F /  11.6 °C 51.4 °F /  10.8 °C 29.7in /  1006.8hPa Calm   7mph /  11.3km/h 95% 0.06in /  1.5mm 42 W/m2
12:34 52.9 °F /  11.6 °C 51.4 °F /  10.8 °C 29.7in /  1006.4hPa Calm   3mph /  4.8km/h 95% 0.06in /  1.5mm 56 W/m2
12:39 52.9 °F /  11.6 °C 51.3 °F /  10.7 °C 29.7in /  1006.4hPa SSW 6.9mph /  11.1km/h 9mph /  14.5km/h 94% 0.04in /  1.0mm 69 W/m2
12:44 52.9 °F /  11.6 °C 51.3 °F /  10.7 °C 29.7in /  1006.4hPa Calm     94% 0.02in /  0.5mm 46 W/m2
12:49 52.9 °F /  11.6 °C 51.3 °F /  10.7 °C 29.7in /  1006.4hPa Calm     94% 0.02in /  0.5mm 42 W/m2
12:54 52.9 °F /  11.6 °C 51.3 °F /  10.7 °C 29.7in /  1006.4hPa Calm   5mph /  8km/h 94% 0.02in /  0.5mm 44 W/m2
12:59 52.9 °F /  11.6 °C 51.3 °F /  10.7 °C 29.7in /  1006.4hPa Calm   5mph /  8km/h 94% 0.02in /  0.5mm 47 W/m2
13:04 52.9 °F /  11.6 °C 51.3 °F /  10.7 °C 29.7in /  1006.4hPa Calm   11mph /  17.7km/h 94% 0.02in /  0.5mm 42 W/m2
13:09 52.9 °F /  11.6 °C 51.3 °F /  10.7 °C 29.7in /  1006.4hPa Calm     94% 0.02in /  0.5mm 33 W/m2
13:14 52.9 °F /  11.6 °C 51.3 °F /  10.7 °C 29.7in /  1006.4hPa West 14.1mph /  22.7km/h 14mph /  22.5km/h 94% 0.02in /  0.5mm 53 W/m2
13:19 52.9 °F /  11.6 °C 51.3 °F /  10.7 °C 29.7in /  1006.4hPa Calm   1mph /  1.6km/h 94% 0.01in /  0.2mm 62 W/m2
13:24 52.9 °F /  11.6 °C 51.3 °F /  10.7 °C 29.7in /  1006.4hPa WSW 14mph /  22.5km/h 14mph /  22.5km/h 94% 0.01in /  0.2mm 62 W/m2
13:29 52.9 °F /  11.6 °C 51.4 °F /  10.8 °C 29.7in /  1006.4hPa Calm     95% 0.01in /  0.2mm 65 W/m2
13:34 53.1 °F /  11.7 °C 51.6 °F /  10.9 °C 29.7in /  1006.4hPa Calm     95% 0.01in /  0.2mm 56 W/m2
13:40 53.1 °F /  11.7 °C 51.6 °F /  10.9 °C 29.7in /  1006.4hPa Calm   1mph /  1.6km/h 95% 0.01in /  0.2mm 72 W/m2
13:45 53.1 °F /  11.7 °C 51.6 °F /  10.9 °C 29.7in /  1006.4hPa Calm   1mph /  1.6km/h 95% 0.01in /  0.2mm 54 W/m2
13:50 53.1 °F /  11.7 °C 51.6 °F /  10.9 °C 29.7in /  1006.4hPa Calm   7mph /  11.3km/h 95% 0.01in /  0.2mm 63 W/m2
13:55 53.1 °F /  11.7 °C 51.6 °F /  10.9 °C 29.7in /  1006.4hPa Calm   4mph /  6.4km/h 95% 0.01in /  0.2mm 58 W/m2
14:00 53.1 °F /  11.7 °C 51.4 °F /  10.8 °C 29.7in /  1006.4hPa Calm   7mph /  11.3km/h 94% 0in /  0.0mm 65 W/m2
14:05 53.1 °F /  11.7 °C 51.4 °F /  10.8 °C 29.7in /  1006.4hPa Calm   6mph /  9.7km/h 94% 0.01in /  0.2mm 58 W/m2
14:10 52.9 °F /  11.6 °C 51.4 °F /  10.8 °C 29.7in /  1006.8hPa Calm     95% 0.01in /  0.2mm 54 W/m2
14:15 52.9 °F /  11.6 °C 51.4 °F /  10.8 °C 29.7in /  1006.8hPa WSW 13mph /  20.9km/h 13mph /  20.9km/h 95% 0.02in /  0.5mm 35 W/m2
14:20 52.9 °F /  11.6 °C 51.4 °F /  10.8 °C 29.8in /  1007.5hPa Calm   1mph /  1.6km/h 95% 0.05in /  1.3mm 46 W/m2
14:25 52.7 °F /  11.5 °C 51.3 °F /  10.7 °C 29.8in /  1007.5hPa Calm   5mph /  8km/h 95% 0.05in /  1.3mm 93 W/m2
14:30 52.3 °F /  11.3 °C 50.7 °F /  10.4 °C 29.8in /  1007.5hPa Calm     94% 0.06in /  1.5mm 195 W/m2
14:35 52.2 °F /  11.2 °C 50.5 °F /  10.3 °C 29.8in /  1007.5hPa WNW 10.1mph /  16.3km/h 15mph /  24.1km/h 94% 0.06in /  1.5mm 207 W/m2
14:40 52.2 °F /  11.2 °C 50.5 °F /  10.3 °C 29.8in /  1007.5hPa Calm   1mph /  1.6km/h 94% 0.06in /  1.5mm 149 W/m2
14:45 52 °F /  11.1 °C 50 °F /  10 °C 29.8in /  1007.5hPa Calm   15mph /  24.1km/h 93% 0.06in /  1.5mm 67 W/m2
14:50 52 °F /  11.1 °C 50 °F /  10 °C 29.8in /  1007.5hPa Calm   15mph /  24.1km/h 93% 0.06in /  1.5mm 165 W/m2
14:55 52 °F /  11.1 °C 50 °F /  10 °C 29.8in /  1007.5hPa Calm     93% 0.06in /  1.5mm 100 W/m2
15:00 52 °F /  11.1 °C 50.4 °F /  10.2 °C 29.8in /  1007.5hPa Calm   11mph /  17.7km/h 94% 0.06in /  1.5mm 65 W/m2
15:05 52 °F /  11.1 °C 50.4 °F /  10.2 °C 29.8in /  1007.5hPa Calm     94% 0.06in /  1.5mm 60 W/m2
15:10 52 °F /  11.1 °C 50 °F /  10 °C 29.8in /  1007.8hPa Calm     93% 0.06in /  1.5mm 74 W/m2
15:15 52.2 °F /  11.2 °C 50.2 °F /  10.1 °C 29.8in /  1007.8hPa Calm     93% 0.05in /  1.3mm 137 W/m2
15:20 52.2 °F /  11.2 °C 50.2 °F /  10.1 °C 29.8in /  1008.1hPa WNW 8.1mph /  13km/h 12mph /  19.3km/h 93% 0.02in /  0.5mm 102 W/m2
15:25 52.3 °F /  11.3 °C 50.4 °F /  10.2 °C 29.8in /  1008.1hPa Calm     93% 0.02in /  0.5mm 84 W/m2
15:30 52.3 °F /  11.3 °C 50.4 °F /  10.2 °C 29.8in /  1008.1hPa Calm     93% 0.01in /  0.2mm 97 W/m2
15:35 52.5 °F /  11.4 °C 50.5 °F /  10.3 °C 29.8in /  1008.5hPa Calm   1mph /  1.6km/h 93% 0.01in /  0.2mm 76 W/m2
15:40 52.5 °F /  11.4 °C 50.5 °F /  10.3 °C 29.8in /  1008.5hPa Calm     93% 0.01in /  0.2mm 26 W/m2
15:45 52.3 °F /  11.3 °C 50.4 °F /  10.2 °C 29.8in /  1008.5hPa Calm   1mph /  1.6km/h 93% 0.01in /  0.2mm 30 W/m2
15:50 52.3 °F /  11.3 °C 50.4 °F /  10.2 °C 29.8in /  1008.8hPa Calm     93% 0in /  0.0mm 90 W/m2
15:55 52.3 °F /  11.3 °C 50.4 °F /  10.2 °C 29.8in /  1008.8hPa Calm   1mph /  1.6km/h 93% 0in /  0.0mm 79 W/m2
16:01 52.3 °F /  11.3 °C 50.4 °F /  10.2 °C 29.8in /  1008.8hPa Calm     93% 0in /  0.0mm 49 W/m2
16:06 52.3 °F /  11.3 °C 50.4 °F /  10.2 °C 29.8in /  1008.8hPa Calm   9mph /  14.5km/h 93% 0in /  0.0mm 25 W/m2
16:11 52.3 °F /  11.3 °C 50 °F /  10 °C 29.8in /  1008.8hPa Calm     92% 0in /  0.0mm 37 W/m2
16:16 52.3 °F /  11.3 °C 50 °F /  10 °C 29.8in /  1009.1hPa Calm   4mph /  6.4km/h 92% 0in /  0.0mm 30 W/m2
16:21 52.3 °F /  11.3 °C 49.8 °F /  9.9 °C 29.8in /  1009.1hPa Calm   3mph /  4.8km/h 91% 0in /  0.0mm 21 W/m2
16:26 52.2 °F /  11.2 °C 49.6 °F /  9.8 °C 29.8in /  1009.1hPa Calm     91% 0in /  0.0mm 37 W/m2
16:31 52.2 °F /  11.2 °C 49.6 °F /  9.8 °C 29.8in /  1009.1hPa Calm   1mph /  1.6km/h 91% 0in /  0.0mm 37 W/m2
16:36 52.2 °F /  11.2 °C 49.3 °F /  9.6 °C 29.8in /  1009.1hPa Calm     90% 0in /  0.0mm 37 W/m2
16:41 52.2 °F /  11.2 °C 49.3 °F /  9.6 °C 29.8in /  1009.1hPa Calm     90% 0in /  0.0mm 19 W/m2
16:46 52.2 °F /  11.2 °C 49.3 °F /  9.6 °C 29.8in /  1009.1hPa Calm     90% 0in /  0.0mm 18 W/m2
16:51 52.2 °F /  11.2 °C 49.3 °F /  9.6 °C 29.8in /  1009.1hPa Calm     90% 0in /  0.0mm 14 W/m2
16:56 52.2 °F /  11.2 °C 49.3 °F /  9.6 °C 29.8in /  1009.5hPa Calm     90% 0in /  0.0mm 5 W/m2
17:01 52.2 °F /  11.2 °C 49.3 °F /  9.6 °C 29.8in /  1009.5hPa Calm     90% 0in /  0.0mm 11 W/m2
17:06 52.2 °F /  11.2 °C 49.3 °F /  9.6 °C 29.8in /  1009.5hPa Calm     90% 0in /  0.0mm 7 W/m2
17:11 52 °F /  11.1 °C 49.1 °F /  9.5 °C 29.8in /  1009.5hPa Calm     90% 0in /  0.0mm 0 W/m2
17:16 52 °F /  11.1 °C 49.1 °F /  9.5 °C 29.8in /  1009.8hPa Calm   1mph /  1.6km/h 90% 0in /  0.0mm 0 W/m2
17:21 52 °F /  11.1 °C 49.1 °F /  9.5 °C 29.8in /  1009.8hPa Calm     90% 0in /  0.0mm 0 W/m2
17:26 52 °F /  11.1 °C 49.5 °F /  9.7 °C 29.8in /  1009.8hPa Calm     91% 0in /  0.0mm 0 W/m2
17:31 51.6 °F /  10.9 °C 49.1 °F /  9.5 °C 29.8in /  1009.8hPa WSW 0.9mph /  1.4km/h 6mph /  9.7km/h 91% 0in /  0.0mm 0 W/m2
17:36 51.6 °F /  10.9 °C 49.1 °F /  9.5 °C 29.8in /  1009.8hPa Calm   2mph /  3.2km/h 91% 0in /  0.0mm 0 W/m2
17:42 51.4 °F /  10.8 °C 49.3 °F /  9.6 °C 29.8in /  1010.2hPa Calm   6mph /  9.7km/h 92% 0in /  0.0mm 0 W/m2
17:47 51.4 °F /  10.8 °C 49.3 °F /  9.6 °C 29.8in /  1010.2hPa Calm     92% 0in /  0.0mm 0 W/m2
17:52 51.3 °F /  10.7 °C 49.1 °F /  9.5 °C 29.8in /  1010.2hPa Calm   4mph /  6.4km/h 92% 0in /  0.0mm 0 W/m2
17:57 51.3 °F /  10.7 °C 49.1 °F /  9.5 °C 29.8in /  1009.8hPa Calm     92% 0in /  0.0mm 0 W/m2
18:02 51.3 °F /  10.7 °C 49.1 °F /  9.5 °C 29.8in /  1010.2hPa Calm     92% 0in /  0.0mm 0 W/m2
18:07 51.1 °F /  10.6 °C 48.9 °F /  9.4 °C 29.8in /  1010.2hPa Calm     92% 0in /  0.0mm 0 W/m2
18:12 51.1 °F /  10.6 °C 48.9 °F /  9.4 °C 29.8in /  1010.2hPa Calm     92% 0in /  0.0mm 0 W/m2
18:17 51.1 °F /  10.6 °C 48.9 °F /  9.4 °C 29.8in /  1010.2hPa Calm     92% 0in /  0.0mm 0 W/m2
18:22 51.1 °F /  10.6 °C 48.9 °F /  9.4 °C 29.8in /  1010.2hPa Calm     92% 0in /  0.0mm 0 W/m2
18:27 51.1 °F /  10.6 °C 48.6 °F /  9.2 °C 29.8in /  1010.2hPa Calm     91% 0in /  0.0mm 0 W/m2
18:32 51.1 °F /  10.6 °C 48.6 °F /  9.2 °C 29.8in /  1010.2hPa Calm     91% 0in /  0.0mm 0 W/m2
18:37 51.1 °F /  10.6 °C 48.6 °F /  9.2 °C 29.8in /  1009.8hPa Calm     91% 0in /  0.0mm 0 W/m2
18:42 51.1 °F /  10.6 °C 48.6 °F /  9.2 °C 29.8in /  1009.8hPa Calm     91% 0in /  0.0mm 0 W/m2
18:47 51.1 °F /  10.6 °C 48.6 °F /  9.2 °C 29.8in /  1010.2hPa Calm     91% 0in /  0.0mm 0 W/m2
18:52 51.3 °F /  10.7 °C 48.7 °F /  9.3 °C 29.8in /  1010.2hPa Calm   7mph /  11.3km/h 91% 0in /  0.0mm 0 W/m2
18:57 51.3 °F /  10.7 °C 48.7 °F /  9.3 °C 29.8in /  1010.2hPa Calm     91% 0in /  0.0mm 0 W/m2
19:02 51.4 °F /  10.8 °C 48.9 °F /  9.4 °C 29.8in /  1010.2hPa Calm   1mph /  1.6km/h 91% 0in /  0.0mm 0 W/m2
19:07 51.4 °F /  10.8 °C 48.9 °F /  9.4 °C 29.8in /  1010.2hPa Calm     91% 0in /  0.0mm 0 W/m2
19:12 51.4 °F /  10.8 °C 48.9 °F /  9.4 °C 29.8in /  1010.2hPa Calm   1mph /  1.6km/h 91% 0in /  0.0mm 0 W/m2
19:17 51.6 °F /  10.9 °C 49.1 °F /  9.5 °C 29.8in /  1010.2hPa Calm     91% 0in /  0.0mm 0 W/m2
19:22 51.6 °F /  10.9 °C 49.1 °F /  9.5 °C 29.8in /  1010.2hPa Calm     91% 0in /  0.0mm 0 W/m2
19:27 51.6 °F /  10.9 °C 49.1 °F /  9.5 °C 29.8in /  1010.2hPa Calm     91% 0in /  0.0mm 0 W/m2
19:32 51.8 °F /  11 °C 49.3 °F /  9.6 °C 29.8in /  1010.2hPa Calm     91% 0in /  0.0mm 0 W/m2
19:37 52 °F /  11.1 °C 49.5 °F /  9.7 °C 29.8in /  1010.2hPa Calm   1mph /  1.6km/h 91% 0in /  0.0mm 0 W/m2
19:42 52 °F /  11.1 °C 49.5 °F /  9.7 °C 29.8in /  1010.2hPa Calm     91% 0in /  0.0mm 0 W/m2
19:47 52.2 °F /  11.2 °C 49.6 °F /  9.8 °C 29.8in /  1010.2hPa Calm   1mph /  1.6km/h 91% 0in /  0.0mm 0 W/m2
19:52 52.2 °F /  11.2 °C 49.6 °F /  9.8 °C 29.8in /  1010.2hPa Calm     91% 0in /  0.0mm 0 W/m2
19:57 52.3 °F /  11.3 °C 49.5 °F /  9.7 °C 29.8in /  1010.2hPa Calm     90% 0in /  0.0mm 0 W/m2
20:02 52.3 °F /  11.3 °C 49.5 °F /  9.7 °C 29.8in /  1010.2hPa Calm     90% 0in /  0.0mm 0 W/m2
20:07 52.5 °F /  11.4 °C 49.6 °F /  9.8 °C 29.8in /  1010.5hPa Calm     90% 0in /  0.0mm 0 W/m2
20:12 52.5 °F /  11.4 °C 49.6 °F /  9.8 °C 29.8in /  1010.2hPa Calm     90% 0in /  0.0mm 0 W/m2
20:18 52.5 °F /  11.4 °C 49.6 °F /  9.8 °C 29.9in /  1010.8hPa Calm     90% 0.01in /  0.2mm 0 W/m2
20:23 52.3 °F /  11.3 °C 49.5 °F /  9.7 °C 29.9in /  1010.8hPa Calm     90% 0.02in /  0.5mm 0 W/m2
20:28 52.3 °F /  11.3 °C 49.5 °F /  9.7 °C 29.9in /  1010.8hPa Calm   17mph /  27.4km/h 90% 0.02in /  0.5mm 0 W/m2
20:33 52.2 °F /  11.2 °C 49.3 °F /  9.6 °C 29.9in /  1010.8hPa Calm   1mph /  1.6km/h 90% 0.02in /  0.5mm 0 W/m2
20:38 52.2 °F /  11.2 °C 49.3 °F /  9.6 °C 29.9in /  1010.8hPa Calm     90% 0.02in /  0.5mm 0 W/m2
20:43 52.2 °F /  11.2 °C 49.3 °F /  9.6 °C 29.9in /  1011.2hPa Calm     90% 0.02in /  0.5mm 0 W/m2
20:48 52 °F /  11.1 °C 49.5 °F /  9.7 °C 29.9in /  1011.2hPa Calm     91% 0.02in /  0.5mm 0 W/m2
20:53 52 °F /  11.1 °C 49.5 °F /  9.7 °C 29.9in /  1011.2hPa Calm   18mph /  29km/h 91% 0.02in /  0.5mm 0 W/m2
20:58 51.8 °F /  11 °C 49.3 °F /  9.6 °C 29.9in /  1011.2hPa Calm     91% 0.02in /  0.5mm 0 W/m2
21:03 51.8 °F /  11 °C 49.3 °F /  9.6 °C 29.9in /  1011.2hPa Calm   18mph /  29km/h 91% 0.02in /  0.5mm 0 W/m2
21:08 51.8 °F /  11 °C 49.3 °F /  9.6 °C 29.9in /  1011.5hPa Calm   6mph /  9.7km/h 91% 0.02in /  0.5mm 0 W/m2
21:13 51.8 °F /  11 °C 49.3 °F /  9.6 °C 29.9in /  1011.5hPa Calm   11mph /  17.7km/h 91% 0.02in /  0.5mm 0 W/m2
21:18 51.6 °F /  10.9 °C 49.1 °F /  9.5 °C 29.9in /  1011.9hPa Calm   1mph /  1.6km/h 91% 0.02in /  0.5mm 0 W/m2
21:23 51.6 °F /  10.9 °C 49.1 °F /  9.5 °C 29.9in /  1011.9hPa Calm   11mph /  17.7km/h 91% 0.02in /  0.5mm 0 W/m2
21:28 51.4 °F /  10.8 °C 48.9 °F /  9.4 °C 29.9in /  1011.9hPa WNW 16.1mph /  25.9km/h 18mph /  29km/h 91% 0.02in /  0.5mm 0 W/m2
21:33 51.4 °F /  10.8 °C 49.3 °F /  9.6 °C 29.9in /  1012.2hPa Calm     92% 0.02in /  0.5mm 0 W/m2
21:38 51.4 °F /  10.8 °C 49.3 °F /  9.6 °C 29.9in /  1012.2hPa Calm   18mph /  29km/h 92% 0.03in /  0.8mm 0 W/m2
21:43 51.3 °F /  10.7 °C 49.1 °F /  9.5 °C 29.9in /  1012.5hPa Calm     92% 0.05in /  1.3mm 0 W/m2
21:48 51.1 °F /  10.6 °C 49.1 °F /  9.5 °C 29.9in /  1012.9hPa Calm     93% 0.06in /  1.5mm 0 W/m2
21:53 50.9 °F /  10.5 °C 48.9 °F /  9.4 °C 29.9in /  1012.9hPa Calm   1mph /  1.6km/h 93% 0.06in /  1.5mm 0 W/m2
21:58 50.9 °F /  10.5 °C 48.9 °F /  9.4 °C 29.9in /  1012.9hPa Calm   1mph /  1.6km/h 93% 0.06in /  1.5mm 0 W/m2
22:03 50.9 °F /  10.5 °C 48.9 °F /  9.4 °C 29.9in /  1012.9hPa Calm     93% 0.06in /  1.5mm 0 W/m2
22:08 50.9 °F /  10.5 °C 48.9 °F /  9.4 °C 29.9in /  1012.9hPa Calm   2mph /  3.2km/h 93% 0.06in /  1.5mm 0 W/m2
22:13 50.9 °F /  10.5 °C 48.9 °F /  9.4 °C 29.9in /  1012.9hPa Calm     93% 0.06in /  1.5mm 0 W/m2
22:18 50.9 °F /  10.5 °C 48.9 °F /  9.4 °C 29.9in /  1012.9hPa Calm     93% 0.05in /  1.3mm 0 W/m2
22:23 50.7 °F /  10.4 °C 48.7 °F /  9.3 °C 29.9in /  1013.2hPa Calm     93% 0.05in /  1.3mm 0 W/m2
22:28 50.5 °F /  10.3 °C 48.4 °F /  9.1 °C 29.9in /  1013.2hPa Calm     92% 0.04in /  1.0mm 0 W/m2
22:33 50.2 °F /  10.1 °C 47.3 °F /  8.5 °C 29.9in /  1013.2hPa Calm   2mph /  3.2km/h 90% 0.04in /  1.0mm 0 W/m2
22:38 50 °F /  10 °C 46.9 °F /  8.3 °C 29.9in /  1013.5hPa Calm     89% 0.03in /  0.8mm 0 W/m2
22:43 49.6 °F /  9.8 °C 46.6 °F /  8.1 °C 29.9in /  1013.5hPa Calm     89% 0.01in /  0.2mm 0 W/m2
22:48 49.5 °F /  9.7 °C 46.4 °F /  8 °C 29.9in /  1013.5hPa Calm     89% 0in /  0.0mm 0 W/m2
22:53 49.3 °F /  9.6 °C 46.2 °F /  7.9 °C 29.9in /  1013.2hPa Calm     89% 0in /  0.0mm 0 W/m2
22:58 48.9 °F /  9.4 °C 45.9 °F /  7.7 °C 29.9in /  1013.5hPa Calm     89% 0in /  0.0mm 0 W/m2
23:03 48.7 °F /  9.3 °C 45.7 °F /  7.6 °C 29.9in /  1013.5hPa Calm     89% 0in /  0.0mm 0 W/m2
23:08 48.7 °F /  9.3 °C 45.7 °F /  7.6 °C 29.9in /  1013.5hPa Calm     89% 0in /  0.0mm 0 W/m2
23:13 48.6 °F /  9.2 °C 45.5 °F /  7.5 °C 29.9in /  1013.5hPa Calm     89% 0in /  0.0mm 0 W/m2
23:18 48.6 °F /  9.2 °C 45.5 °F /  7.5 °C 29.9in /  1013.5hPa Calm     89% 0in /  0.0mm 0 W/m2
23:23 48.4 °F /  9.1 °C 45.5 °F /  7.5 °C 29.9in /  1013.5hPa Calm     90% 0in /  0.0mm 0 W/m2
23:28 48.4 °F /  9.1 °C 45.5 °F /  7.5 °C 29.9in /  1013.5hPa Calm     90% 0in /  0.0mm 0 W/m2
23:33 48.2 °F /  9 °C 45.3 °F /  7.4 °C 29.9in /  1013.5hPa Calm     90% 0in /  0.0mm 0 W/m2
23:38 48.2 °F /  9 °C 45.7 °F /  7.6 °C 29.9in /  1013.5hPa Calm     91% 0in /  0.0mm 0 W/m2
23:43 48.2 °F /  9 °C 45.7 °F /  7.6 °C 29.9in /  1013.9hPa Calm     91% 0in /  0.0mm 0 W/m2
23:48 48.2 °F /  9 °C 45.7 °F /  7.6 °C 29.9in /  1013.5hPa Calm     91% 0in /  0.0mm 0 W/m2
23:53 48.4 °F /  9.1 °C 46.2 °F /  7.9 °C 29.9in /  1013.5hPa Calm     92% 0in /  0.0mm 0 W/m2
23:58 48.4 °F /  9.1 °C 46.2 °F /  7.9 °C 29.9in /  1013.5hPa Calm     92% 0in /  0.0mm 0 W/m2
Juneau County Weather
Compliments of Weather Underground - 4 mb